createdAt,value
2023-02-12T00:01:28.930Z,-0.49
2023-02-12T00:03:58.081Z,-0.51
2023-02-12T00:06:27.238Z,-0.48
2023-02-12T00:08:56.588Z,-0.45
2023-02-12T00:11:27.618Z,-0.40
2023-02-12T00:13:57.146Z,-0.34
2023-02-12T00:16:28.885Z,-0.30
2023-02-12T00:18:58.548Z,-0.30
2023-02-12T00:21:27.493Z,-0.35
2023-02-12T00:23:56.199Z,-0.37
2023-02-12T00:26:25.021Z,-0.42
2023-02-12T00:28:53.496Z,-0.46
2023-02-12T00:31:25.790Z,-0.45
2023-02-12T00:33:59.280Z,-0.45
2023-02-12T00:36:29.678Z,-0.47
2023-02-12T00:38:59.728Z,-0.47
2023-02-12T00:41:28.043Z,-0.43
2023-02-12T00:43:56.514Z,-0.38
2023-02-12T00:46:24.851Z,-0.34
2023-02-12T00:48:53.240Z,-0.36
2023-02-12T00:51:21.761Z,-0.40
2023-02-12T00:53:50.066Z,-0.33
2023-02-12T00:56:18.244Z,-0.30
2023-02-12T00:58:49.008Z,-0.28
2023-02-12T01:01:17.575Z,-0.24
2023-02-12T01:03:45.774Z,-0.20
2023-02-12T01:06:14.121Z,-0.20
2023-02-12T01:08:42.204Z,-0.17
2023-02-12T01:11:13.377Z,-0.17
2023-02-12T01:13:41.466Z,-0.15
2023-02-12T01:16:16.212Z,-0.12
2023-02-12T01:18:45.163Z,-0.11
2023-02-12T01:21:35.136Z,-0.09
2023-02-12T01:24:03.673Z,-0.09
2023-02-12T01:26:33.193Z,-0.05
2023-02-12T01:29:04.042Z,-0.01
2023-02-12T01:31:37.499Z,0.01
2023-02-12T01:34:07.448Z,0.01
2023-02-12T01:36:36.028Z,-0.01
2023-02-12T01:39:06.227Z,-0.00
2023-02-12T01:41:40.087Z,0.01
2023-02-12T01:44:23.642Z,0.01
2023-02-12T01:47:06.090Z,0.01
2023-02-12T01:49:38.982Z,-0.03
2023-02-12T01:52:20.379Z,-0.06
2023-02-12T01:54:50.501Z,-0.10
2023-02-12T01:57:20.021Z,-0.12
2023-02-12T01:59:51.680Z,-0.15
2023-02-12T02:02:20.066Z,-0.23
2023-02-12T02:04:54.288Z,-0.31
2023-02-12T02:07:22.449Z,-0.40
2023-02-12T02:09:51.645Z,-0.44
2023-02-12T02:12:38.874Z,-0.48
2023-02-12T02:15:09.035Z,-0.53
2023-02-12T02:17:56.490Z,-0.53
2023-02-12T02:20:49.622Z,-0.57
2023-02-12T02:23:23.653Z,-0.59
2023-02-12T02:26:11.997Z,-0.59
2023-02-12T02:28:59.144Z,-0.63
2023-02-12T02:31:32.488Z,-0.71
2023-02-12T02:34:12.627Z,-0.71
2023-02-12T02:37:00.185Z,-0.75
2023-02-12T02:40:01.734Z,-0.79
2023-02-12T02:42:36.893Z,-0.80
2023-02-12T02:45:12.755Z,-0.82
2023-02-12T02:47:55.753Z,-0.78
2023-02-12T02:50:27.816Z,-0.77
2023-02-12T02:53:13.530Z,-0.76
2023-02-12T02:55:49.783Z,-0.77
2023-02-12T02:58:24.252Z,-0.75
2023-02-12T03:01:07.646Z,-0.75
2023-02-12T03:03:53.207Z,-0.78
2023-02-12T03:06:27.567Z,-0.81
2023-02-12T03:09:00.540Z,-0.71
2023-02-12T03:11:31.785Z,-0.59
2023-02-12T03:14:10.212Z,-0.54
2023-02-12T03:16:50.437Z,-0.50
2023-02-12T03:19:22.986Z,-0.46
2023-02-12T03:21:57.926Z,-0.42
2023-02-12T03:24:45.120Z,-0.40
2023-02-12T03:27:41.516Z,-0.39
2023-02-12T03:30:10.418Z,-0.39
2023-02-12T03:33:21.294Z,-0.44
2023-02-12T03:36:01.969Z,-0.49
2023-02-12T03:38:33.527Z,-0.55
2023-02-12T03:41:14.276Z,-0.60
2023-02-12T03:43:52.766Z,-0.65
2023-02-12T03:46:34.347Z,-0.68
2023-02-12T03:49:11.588Z,-0.68
2023-02-12T03:51:42.507Z,-0.72
2023-02-12T03:54:15.815Z,-0.76
2023-02-12T03:56:52.329Z,-0.76
2023-02-12T03:59:22.273Z,-0.73
2023-02-12T04:01:53.792Z,-0.69
2023-02-12T04:04:24.804Z,-0.66
2023-02-12T04:06:54.640Z,-0.65
2023-02-12T04:09:25.661Z,-0.63
2023-02-12T04:11:56.433Z,-0.62
2023-02-12T04:14:50.344Z,-0.61
2023-02-12T04:17:30.827Z,-0.63
2023-02-12T04:20:17.746Z,-0.71
2023-02-12T04:23:20.692Z,-0.82
2023-02-12T04:26:10.872Z,-0.85
2023-02-12T04:29:02.118Z,-0.89
2023-02-12T04:31:43.550Z,-0.92
2023-02-12T04:34:26.855Z,-0.96
2023-02-12T04:37:19.678Z,-0.97
2023-02-12T04:39:49.783Z,-1.00
2023-02-12T04:42:17.906Z,-1.01
2023-02-12T04:44:46.935Z,-1.03
2023-02-12T04:47:17.171Z,-1.01
2023-02-12T04:49:45.358Z,-1.02
2023-02-12T04:52:13.692Z,-1.09
2023-02-12T04:54:41.905Z,-1.11
2023-02-12T04:57:10.146Z,-1.06
2023-02-12T04:59:38.365Z,-0.98
2023-02-12T05:02:06.580Z,-0.89
2023-02-12T05:04:34.911Z,-0.85
2023-02-12T05:07:03.113Z,-0.81
2023-02-12T05:09:31.577Z,-0.75
2023-02-12T05:12:00.040Z,-0.69
2023-02-12T05:14:28.155Z,-0.69
2023-02-12T05:16:56.305Z,-0.67
2023-02-12T05:19:24.459Z,-0.67
2023-02-12T05:21:52.723Z,-0.70
2023-02-12T05:24:20.872Z,-0.75
2023-02-12T05:26:49.710Z,-0.77
2023-02-12T05:29:18.396Z,-0.80
2023-02-12T05:31:46.773Z,-0.80
2023-02-12T05:34:15.230Z,-0.83
2023-02-12T05:36:43.372Z,-0.86
2023-02-12T05:39:11.620Z,-0.83
2023-02-12T05:41:39.816Z,-0.83
2023-02-12T05:44:08.146Z,-0.87
2023-02-12T05:46:36.245Z,-0.88
2023-02-12T05:49:04.768Z,-0.90
2023-02-12T05:51:33.148Z,-0.87
2023-02-12T05:54:04.534Z,-0.80
2023-02-12T05:56:36.262Z,-0.71
2023-02-12T05:59:07.203Z,-0.62
2023-02-12T06:01:39.278Z,-0.57
2023-02-12T06:04:13.863Z,-0.56
2023-02-12T06:06:42.788Z,-0.62
2023-02-12T06:09:13.308Z,-0.64
2023-02-12T06:11:41.951Z,-0.75
2023-02-12T06:14:14.134Z,-0.81
2023-02-12T06:16:45.844Z,-0.83
2023-02-12T06:19:14.496Z,-0.79
2023-02-12T06:21:43.189Z,-0.78
2023-02-12T06:24:13.694Z,-0.77
2023-02-12T06:26:42.359Z,-0.73
2023-02-12T06:29:11.379Z,-0.67
2023-02-12T06:31:39.871Z,-0.64
2023-02-12T06:34:11.314Z,-0.63
2023-02-12T06:36:42.185Z,-0.64
2023-02-12T06:39:11.583Z,-0.62
2023-02-12T06:41:40.002Z,-0.58
2023-02-12T06:44:08.571Z,-0.58
2023-02-12T06:46:36.717Z,-0.53
2023-02-12T06:49:04.889Z,-0.47
2023-02-12T06:51:32.993Z,-0.36
2023-02-12T06:54:01.042Z,-0.27
2023-02-12T06:56:29.235Z,-0.22
2023-02-12T06:59:01.252Z,-0.19
2023-02-12T07:01:30.899Z,-0.14
2023-02-12T07:04:03.132Z,-0.04
2023-02-12T07:06:33.905Z,0.06
2023-02-12T07:09:04.035Z,0.15
2023-02-12T07:11:37.794Z,0.27
2023-02-12T07:14:07.610Z,0.38
2023-02-12T07:16:35.863Z,0.50
2023-02-12T07:19:04.027Z,0.62
2023-02-12T07:21:32.517Z,0.74
2023-02-12T07:24:00.729Z,0.81
2023-02-12T07:26:29.162Z,0.87
2023-02-12T07:28:59.106Z,0.90
2023-02-12T07:31:27.401Z,0.98
2023-02-12T07:33:57.754Z,1.07
2023-02-12T07:36:28.225Z,1.15
2023-02-12T07:38:57.247Z,1.23
2023-02-12T07:41:34.576Z,1.31
2023-02-12T07:44:10.340Z,1.39
2023-02-12T07:46:42.415Z,1.41
2023-02-12T07:49:19.661Z,1.49
2023-02-12T07:51:49.753Z,1.58
2023-02-12T07:54:18.153Z,1.64
2023-02-12T07:56:49.466Z,1.70
2023-02-12T07:59:19.888Z,1.77
2023-02-12T08:01:52.254Z,1.82
2023-02-12T08:04:24.127Z,1.86
2023-02-12T08:06:54.566Z,1.86
2023-02-12T08:09:28.529Z,1.88
2023-02-12T08:11:56.781Z,1.94
2023-02-12T08:14:26.773Z,2.01
2023-02-12T08:16:55.057Z,2.04
2023-02-12T08:19:26.436Z,2.14
2023-02-12T08:21:56.497Z,2.24
2023-02-12T08:24:25.812Z,2.33
2023-02-12T08:26:54.208Z,2.43
2023-02-12T08:29:28.803Z,2.51
2023-02-12T08:32:02.594Z,2.56
2023-02-12T08:34:36.052Z,2.64
2023-02-12T08:37:06.086Z,2.68
2023-02-12T08:39:34.692Z,2.79
2023-02-12T08:42:02.990Z,2.97
2023-02-12T08:44:31.349Z,3.14
2023-02-12T08:46:59.483Z,3.30
2023-02-12T08:49:30.016Z,3.43
2023-02-12T08:51:59.982Z,3.42
2023-02-12T08:54:29.982Z,3.48
2023-02-12T08:57:00.438Z,3.63
2023-02-12T08:59:28.867Z,3.88
2023-02-12T09:01:57.108Z,4.20
2023-02-12T09:04:27.142Z,5.47
2023-02-12T09:06:56.098Z,6.70
2023-02-12T09:09:24.429Z,7.33
2023-02-12T09:11:52.648Z,7.87
2023-02-12T09:14:24.421Z,8.17
2023-02-12T09:16:54.760Z,8.33
2023-02-12T09:19:23.402Z,8.61
2023-02-12T09:21:56.781Z,10.12
2023-02-12T09:24:27.841Z,11.54
2023-02-12T09:26:57.058Z,11.83
2023-02-12T09:29:25.305Z,12.08
2023-02-12T09:31:53.728Z,12.99
2023-02-12T09:34:22.173Z,14.28
2023-02-12T09:36:50.488Z,15.51
2023-02-12T09:39:18.615Z,16.50
2023-02-12T09:42:21.970Z,17.22
2023-02-12T09:45:06.746Z,18.18
2023-02-12T09:47:53.316Z,18.67
2023-02-12T09:50:46.424Z,19.31
2023-02-12T09:53:21.632Z,20.02
2023-02-12T09:55:49.901Z,19.67
2023-02-12T09:58:34.364Z,18.76
2023-02-12T10:01:14.161Z,17.23
2023-02-12T10:03:44.016Z,17.12
2023-02-12T10:06:20.025Z,17.09
2023-02-12T10:09:24.160Z,17.57
2023-02-12T10:12:04.594Z,18.37
2023-02-12T10:14:57.902Z,18.92
2023-02-12T10:18:12.297Z,19.62
2023-02-12T10:21:18.884Z,19.93
2023-02-12T10:24:19.223Z,19.79
2023-02-12T10:26:50.020Z,19.90
2023-02-12T10:29:25.064Z,20.57
2023-02-12T10:32:31.858Z,21.21
2023-02-12T10:35:00.388Z,21.09
2023-02-12T10:37:38.632Z,21.22
2023-02-12T10:40:16.224Z,21.22
2023-02-12T10:42:52.544Z,22.24
2023-02-12T10:45:25.381Z,22.55
2023-02-12T10:48:04.129Z,23.12
2023-02-12T10:50:45.111Z,23.33
2023-02-12T10:53:25.280Z,23.02
2023-02-12T10:56:26.259Z,23.50
2023-02-12T10:58:59.492Z,22.75
2023-02-12T11:01:39.207Z,20.95
2023-02-12T11:04:40.385Z,19.79
2023-02-12T11:07:12.265Z,18.40
2023-02-12T11:09:46.668Z,18.20
2023-02-12T11:12:24.039Z,18.19
2023-02-12T11:14:55.191Z,18.26
2023-02-12T11:17:45.488Z,17.15
2023-02-12T11:20:16.992Z,16.70
2023-02-12T11:22:55.699Z,16.25
2023-02-12T11:25:26.646Z,15.48
2023-02-12T11:28:18.539Z,15.52
2023-02-12T11:31:04.938Z,15.53
2023-02-12T11:33:38.028Z,14.92
2023-02-12T11:36:18.429Z,14.93
2023-02-12T11:38:55.710Z,14.81
2023-02-12T11:41:37.382Z,14.61
2023-02-12T11:44:11.477Z,14.54
2023-02-12T11:46:41.115Z,12.99
2023-02-12T11:49:39.475Z,13.15
2023-02-12T11:52:15.562Z,13.32
2023-02-12T11:54:49.208Z,13.67
2023-02-12T11:57:59.334Z,13.72
2023-02-12T12:00:37.383Z,12.71
2023-02-12T12:03:15.381Z,11.65
2023-02-12T12:05:51.035Z,10.96
2023-02-12T12:08:30.240Z,10.50
2023-02-12T12:11:08.134Z,10.11
2023-02-12T12:13:43.308Z,9.95
2023-02-12T12:16:41.284Z,9.58
2023-02-12T12:19:52.516Z,9.20
2023-02-12T12:22:30.827Z,8.93
2023-02-12T12:25:02.604Z,8.61
2023-02-12T12:28:05.501Z,8.47
2023-02-12T12:30:58.506Z,8.31
2023-02-12T12:33:30.965Z,8.26
2023-02-12T12:36:21.847Z,8.23
2023-02-12T12:39:01.860Z,8.10
2023-02-12T12:41:42.316Z,7.92
2023-02-12T12:44:25.432Z,7.79
2023-02-12T12:47:12.089Z,7.69
2023-02-12T12:50:12.618Z,7.39
2023-02-12T12:53:02.858Z,6.96
2023-02-12T12:56:12.143Z,6.81
2023-02-12T12:59:15.637Z,6.74
2023-02-12T13:01:58.832Z,6.70
2023-02-12T13:04:39.273Z,6.83
2023-02-12T13:07:29.141Z,6.90
2023-02-12T13:10:17.482Z,6.92
2023-02-12T13:12:55.593Z,6.84
2023-02-12T13:15:32.923Z,6.69
2023-02-12T13:18:30.255Z,6.45
2023-02-12T13:21:25.004Z,6.18
2023-02-12T13:24:08.370Z,6.11
2023-02-12T13:26:59.747Z,5.88
2023-02-12T13:29:58.773Z,5.61
2023-02-12T13:32:32.780Z,5.38
2023-02-12T13:35:05.124Z,5.17
2023-02-12T13:37:37.031Z,5.01
2023-02-12T13:40:14.049Z,4.89
2023-02-12T13:43:00.333Z,4.75
2023-02-12T13:45:43.852Z,4.60
2023-02-12T13:48:29.431Z,4.46
2023-02-12T13:51:31.615Z,4.56
2023-02-12T13:54:27.821Z,4.60
2023-02-12T13:57:01.786Z,4.66
2023-02-12T13:59:33.074Z,4.63
2023-02-12T14:02:33.900Z,4.63
2023-02-12T14:05:19.012Z,4.61
2023-02-12T14:07:54.897Z,4.58
2023-02-12T14:10:30.630Z,4.55
2023-02-12T14:13:19.932Z,4.55
2023-02-12T14:15:54.478Z,4.53
2023-02-12T14:18:26.768Z,4.57
2023-02-12T14:21:13.466Z,4.50
2023-02-12T14:23:46.392Z,4.42
2023-02-12T14:26:19.470Z,4.38
2023-02-12T14:28:53.635Z,4.31
2023-02-12T14:31:27.919Z,4.23
2023-02-12T14:34:05.524Z,4.13
2023-02-12T14:36:33.851Z,4.12
2023-02-12T14:39:04.603Z,4.10
2023-02-12T14:41:38.023Z,4.07
2023-02-12T14:44:18.560Z,4.09
2023-02-12T14:46:51.370Z,3.99
2023-02-12T14:49:44.280Z,3.93
2023-02-12T14:52:16.104Z,3.86
2023-02-12T14:54:56.390Z,3.80
2023-02-12T14:57:35.786Z,3.71
2023-02-12T15:00:28.540Z,3.60
2023-02-12T15:03:12.194Z,3.43
2023-02-12T15:05:56.137Z,3.30
2023-02-12T15:08:27.557Z,3.17
2023-02-12T15:11:04.442Z,3.07
2023-02-12T15:13:44.452Z,2.95
2023-02-12T15:16:44.865Z,2.82
2023-02-12T15:19:41.715Z,2.73
2023-02-12T15:22:36.694Z,2.60
2023-02-12T15:25:20.252Z,2.49
2023-02-12T15:27:50.097Z,2.36
2023-02-12T15:30:26.321Z,2.26
2023-02-12T15:33:09.315Z,2.15
2023-02-12T15:35:44.401Z,2.05
2023-02-12T15:38:22.410Z,1.95
2023-02-12T15:40:56.347Z,1.86
2023-02-12T15:43:30.404Z,1.74
2023-02-12T15:45:58.562Z,1.62
2023-02-12T15:48:33.196Z,1.53
2023-02-12T15:51:04.442Z,1.46
2023-02-12T15:53:33.730Z,1.38
2023-02-12T15:56:03.168Z,1.28
2023-02-12T15:58:39.396Z,1.17
2023-02-12T16:01:08.236Z,1.06
2023-02-12T16:03:39.372Z,0.96
2023-02-12T16:06:14.129Z,0.87
2023-02-12T16:08:46.261Z,0.82
2023-02-12T16:11:20.043Z,0.77
2023-02-12T16:13:52.668Z,0.69
2023-02-12T16:16:27.248Z,0.63
2023-02-12T16:19:20.111Z,0.56
2023-02-12T16:21:53.120Z,0.49
2023-02-12T16:24:32.150Z,0.41
2023-02-12T16:27:09.120Z,0.32
2023-02-12T16:29:44.864Z,0.25
2023-02-12T16:32:35.765Z,0.21
2023-02-12T16:35:24.380Z,0.12
2023-02-12T16:38:31.696Z,0.06
2023-02-12T16:41:33.218Z,-0.00
2023-02-12T16:44:01.312Z,-0.12
2023-02-12T16:46:43.910Z,-0.22
2023-02-12T16:49:17.755Z,-0.32
2023-02-12T16:51:47.902Z,-0.45
2023-02-12T16:54:31.725Z,-0.57
2023-02-12T16:57:01.318Z,-0.73
2023-02-12T16:59:30.181Z,-0.84
2023-02-12T17:01:59.650Z,-0.94
2023-02-12T17:04:28.262Z,-1.00
2023-02-12T17:06:58.163Z,-1.03
2023-02-12T17:09:26.612Z,-1.00
2023-02-12T17:11:56.180Z,-0.94
2023-02-12T17:14:24.332Z,-0.92
2023-02-12T17:16:52.659Z,-0.91
2023-02-12T17:19:22.043Z,-0.94
2023-02-12T17:21:52.113Z,-1.01
2023-02-12T17:24:24.621Z,-1.09
2023-02-12T17:26:54.221Z,-1.18
2023-02-12T17:29:24.431Z,-1.25
2023-02-12T17:31:54.117Z,-1.32
2023-02-12T17:34:23.955Z,-1.43
2023-02-12T17:36:53.280Z,-1.52
2023-02-12T17:39:21.583Z,-1.59
2023-02-12T17:41:50.087Z,-1.63
2023-02-12T17:44:18.259Z,-1.69
2023-02-12T17:46:46.536Z,-1.90
2023-02-12T17:49:15.058Z,-2.03
2023-02-12T17:51:43.314Z,-2.12
2023-02-12T17:54:12.408Z,-2.19
2023-02-12T17:56:40.695Z,-2.23
2023-02-12T17:59:10.503Z,-2.22
2023-02-12T18:01:39.908Z,-2.19
2023-02-12T18:04:08.402Z,-2.14
2023-02-12T18:06:36.584Z,-2.13
2023-02-12T18:09:04.968Z,-2.19
2023-02-12T18:11:33.537Z,-2.22
2023-02-12T18:14:02.470Z,-2.26
2023-02-12T18:16:33.676Z,-2.36
2023-02-12T18:19:04.601Z,-2.44
2023-02-12T18:21:35.135Z,-2.55
2023-02-12T18:24:03.575Z,-2.60
2023-02-12T18:26:32.535Z,-2.61
2023-02-12T18:29:01.537Z,-2.64
2023-02-12T18:31:30.095Z,-2.68
2023-02-12T18:33:58.599Z,-2.72
2023-02-12T18:36:26.939Z,-2.78
2023-02-12T18:38:55.239Z,-2.83
2023-02-12T18:41:26.458Z,-2.87
2023-02-12T18:43:56.882Z,-2.93
2023-02-12T18:46:28.023Z,-2.99
2023-02-12T18:48:57.004Z,-3.07
2023-02-12T18:51:28.175Z,-3.12
2023-02-12T18:54:01.768Z,-3.15
2023-02-12T18:56:33.211Z,-3.20
2023-02-12T18:59:05.421Z,-3.20
2023-02-12T19:01:35.303Z,-3.16
2023-02-12T19:04:05.862Z,-3.18
2023-02-12T19:06:40.680Z,-3.16
2023-02-12T19:09:10.059Z,-3.14
2023-02-12T19:11:38.318Z,-3.14
2023-02-12T19:14:07.121Z,-3.14
2023-02-12T19:16:35.771Z,-3.14
2023-02-12T19:19:04.076Z,-3.20
2023-02-12T19:21:32.499Z,-3.26
2023-02-12T19:24:03.026Z,-3.37
2023-02-12T19:26:33.509Z,-3.47
2023-02-12T19:29:02.202Z,-3.53
2023-02-12T19:31:36.494Z,-3.65
2023-02-12T19:34:08.520Z,-3.82
2023-02-12T19:36:37.369Z,-3.90
2023-02-12T19:39:06.270Z,-3.97
2023-02-12T19:41:41.471Z,-4.02
2023-02-12T19:44:12.935Z,-4.06
2023-02-12T19:46:42.092Z,-4.07
2023-02-12T19:49:19.496Z,-4.06
2023-02-12T19:51:48.107Z,-4.02
2023-02-12T19:54:18.117Z,-3.99
2023-02-12T19:56:47.052Z,-3.96
2023-02-12T19:59:17.677Z,-3.95
2023-02-12T20:01:48.258Z,-3.94
2023-02-12T20:04:19.806Z,-3.98
2023-02-12T20:06:52.755Z,-4.03
2023-02-12T20:09:22.530Z,-4.06
2023-02-12T20:11:51.685Z,-4.15
2023-02-12T20:14:22.926Z,-4.27
2023-02-12T20:16:54.927Z,-4.39
2023-02-12T20:19:26.281Z,-4.47
2023-02-12T20:21:56.894Z,-4.55
2023-02-12T20:24:30.713Z,-4.62
2023-02-12T20:26:59.964Z,-4.71
2023-02-12T20:29:29.107Z,-4.71
2023-02-12T20:31:57.529Z,-4.77
2023-02-12T20:34:25.953Z,-4.91
2023-02-12T20:36:54.368Z,-4.91
2023-02-12T20:39:23.024Z,-4.90
2023-02-12T20:41:51.529Z,-4.92
2023-02-12T20:44:21.769Z,-4.90
2023-02-12T20:46:55.668Z,-4.87
2023-02-12T20:49:26.187Z,-4.91
2023-02-12T20:51:54.903Z,-4.89
2023-02-12T20:54:23.232Z,-4.94
2023-02-12T20:56:51.632Z,-4.94
2023-02-12T20:59:20.784Z,-4.96
2023-02-12T21:01:49.294Z,-4.98
2023-02-12T21:04:19.722Z,-5.05
2023-02-12T21:06:48.754Z,-5.07
2023-02-12T21:09:18.879Z,-5.10
2023-02-12T21:11:48.078Z,-5.13
2023-02-12T21:14:24.797Z,-5.20
2023-02-12T21:16:55.489Z,-5.21
2023-02-12T21:19:25.175Z,-5.29
2023-02-12T21:21:53.816Z,-5.35
2023-02-12T21:24:25.039Z,-5.42
2023-02-12T21:26:54.943Z,-5.43
2023-02-12T21:29:23.581Z,-5.43
2023-02-12T21:31:52.196Z,-5.40
2023-02-12T21:34:23.245Z,-5.41
2023-02-12T21:36:54.666Z,-5.34
2023-02-12T21:39:27.456Z,-5.37
2023-02-12T21:42:05.171Z,-5.38
2023-02-12T21:44:35.720Z,-5.42
2023-02-12T21:47:04.830Z,-5.44
2023-02-12T21:49:33.220Z,-5.47
2023-02-12T21:52:03.980Z,-5.49
2023-02-12T21:54:32.620Z,-5.55
2023-02-12T21:57:01.126Z,-5.56
2023-02-12T21:59:31.973Z,-5.55
2023-02-12T22:02:01.811Z,-5.54
2023-02-12T22:04:30.300Z,-5.49
2023-02-12T22:07:03.057Z,-5.40
2023-02-12T22:09:32.122Z,-5.36
2023-02-12T22:12:00.381Z,-5.42
2023-02-12T22:14:28.496Z,-5.50
2023-02-12T22:16:56.616Z,-5.49
2023-02-12T22:19:24.769Z,-5.47
2023-02-12T22:21:52.833Z,-5.48
2023-02-12T22:24:21.591Z,-5.52
2023-02-12T22:26:49.806Z,-5.63
2023-02-12T22:29:18.477Z,-5.59
2023-02-12T22:31:47.817Z,-5.60
2023-02-12T22:34:19.103Z,-5.67
2023-02-12T22:36:48.192Z,-5.68
2023-02-12T22:39:17.750Z,-5.72
2023-02-12T22:41:46.296Z,-5.72
2023-02-12T22:44:16.195Z,-5.64
2023-02-12T22:46:44.828Z,-5.58
2023-02-12T22:49:13.731Z,-5.54
2023-02-12T22:51:42.375Z,-5.52
2023-02-12T22:54:16.401Z,-5.51
2023-02-12T22:56:45.906Z,-5.52
2023-02-12T22:59:14.112Z,-5.56
2023-02-12T23:01:42.357Z,-5.53
2023-02-12T23:04:18.680Z,-5.53
2023-02-12T23:06:47.395Z,-5.55
2023-02-12T23:09:19.291Z,-5.55
2023-02-12T23:11:48.504Z,-5.53
2023-02-12T23:14:17.376Z,-5.55
2023-02-12T23:16:46.039Z,-5.55
2023-02-12T23:19:15.074Z,-5.59
2023-02-12T23:21:43.645Z,-5.68
2023-02-12T23:24:15.255Z,-5.72
2023-02-12T23:26:43.526Z,-5.72
2023-02-12T23:29:12.247Z,-5.75
2023-02-12T23:31:40.362Z,-5.78
2023-02-12T23:34:08.779Z,-5.84
2023-02-12T23:36:37.019Z,-5.86
2023-02-12T23:39:06.079Z,-5.91
2023-02-12T23:41:34.588Z,-5.89
2023-02-12T23:44:03.170Z,-5.90
2023-02-12T23:46:31.750Z,-5.92
2023-02-12T23:48:59.820Z,-5.95
2023-02-12T23:51:27.875Z,-6.04
2023-02-12T23:53:55.990Z,-6.11
2023-02-12T23:56:24.401Z,-6.13
2023-02-12T23:58:52.626Z,-6.13
